createdAt,value
2023-08-16T00:01:58.108Z,19.03
2023-08-16T00:04:34.507Z,19.02
2023-08-16T00:07:07.059Z,18.99
2023-08-16T00:09:41.020Z,18.96
2023-08-16T00:12:16.818Z,18.94
2023-08-16T00:14:50.832Z,18.93
2023-08-16T00:17:34.935Z,18.89
2023-08-16T00:20:06.423Z,18.84
2023-08-16T00:22:38.824Z,18.78
2023-08-16T00:25:12.511Z,18.74
2023-08-16T00:28:03.550Z,18.70
2023-08-16T00:30:37.182Z,18.66
2023-08-16T00:33:13.887Z,18.65
2023-08-16T00:35:52.628Z,18.66
2023-08-16T00:38:26.346Z,18.66
2023-08-16T00:41:03.756Z,18.65
2023-08-16T00:43:36.605Z,18.64
2023-08-16T00:46:05.325Z,18.64
2023-08-16T00:48:40.436Z,18.66
2023-08-16T00:51:14.374Z,18.65
2023-08-16T00:53:48.772Z,18.62
2023-08-16T00:56:22.850Z,18.59
2023-08-16T00:58:50.773Z,18.57
2023-08-16T01:01:18.624Z,18.55
2023-08-16T01:03:51.565Z,18.53
2023-08-16T01:06:24.489Z,18.52
2023-08-16T01:08:57.373Z,18.49
2023-08-16T01:11:26.982Z,18.47
2023-08-16T01:14:24.340Z,18.44
2023-08-16T01:16:52.516Z,18.40
2023-08-16T01:19:33.314Z,18.36
2023-08-16T01:22:28.089Z,18.31
2023-08-16T01:25:39.473Z,18.27
2023-08-16T01:28:12.975Z,18.23
2023-08-16T01:30:47.041Z,18.19
2023-08-16T01:33:15.229Z,18.16
2023-08-16T01:35:45.700Z,18.14
2023-08-16T01:38:30.254Z,18.14
2023-08-16T01:41:08.668Z,18.15
2023-08-16T01:43:36.545Z,18.13
2023-08-16T01:46:19.488Z,18.12
2023-08-16T01:48:55.529Z,18.10
2023-08-16T01:51:28.851Z,18.08
2023-08-16T01:53:56.789Z,18.06
2023-08-16T01:56:26.910Z,18.05
2023-08-16T01:59:04.212Z,18.03
2023-08-16T02:01:37.447Z,18.03
2023-08-16T02:04:05.677Z,18.03
2023-08-16T02:06:38.343Z,18.04
2023-08-16T02:09:21.370Z,18.04
2023-08-16T02:12:02.974Z,18.03
2023-08-16T02:14:38.920Z,18.02
2023-08-16T02:17:23.260Z,18.00
2023-08-16T02:19:57.384Z,17.99
2023-08-16T02:22:56.286Z,17.94
2023-08-16T02:25:30.710Z,17.92
2023-08-16T02:27:58.890Z,17.91
2023-08-16T02:30:29.781Z,17.91
2023-08-16T02:32:58.931Z,17.90
2023-08-16T02:35:33.027Z,17.91
2023-08-16T02:38:00.903Z,17.88
2023-08-16T02:40:34.495Z,17.84
2023-08-16T02:43:07.803Z,17.81
2023-08-16T02:45:38.048Z,17.83
2023-08-16T02:48:10.927Z,17.87
2023-08-16T02:50:49.029Z,17.89
2023-08-16T02:53:22.837Z,17.89
2023-08-16T02:55:55.601Z,17.87
2023-08-16T02:58:23.800Z,17.88
2023-08-16T03:00:58.036Z,17.89
2023-08-16T03:03:28.031Z,17.91
2023-08-16T03:06:10.930Z,17.94
2023-08-16T03:08:46.686Z,17.99
2023-08-16T03:11:17.111Z,18.03
2023-08-16T03:14:00.133Z,18.07
2023-08-16T03:16:28.960Z,18.13
2023-08-16T03:18:59.873Z,18.18
2023-08-16T03:21:28.148Z,18.25
2023-08-16T03:24:08.935Z,18.30
2023-08-16T03:26:38.543Z,18.37
2023-08-16T03:29:11.826Z,18.45
2023-08-16T03:31:47.804Z,18.52
2023-08-16T03:34:22.017Z,18.59
2023-08-16T03:36:57.745Z,18.66
2023-08-16T03:39:27.356Z,18.75
2023-08-16T03:42:02.631Z,18.87
2023-08-16T03:44:51.766Z,19.00
2023-08-16T03:47:27.051Z,19.12
2023-08-16T03:49:56.118Z,19.24
2023-08-16T03:52:24.686Z,19.36
2023-08-16T03:54:55.269Z,19.48
2023-08-16T03:57:28.102Z,19.60
2023-08-16T04:00:01.758Z,19.74
2023-08-16T04:02:30.626Z,19.87
2023-08-16T04:05:13.442Z,20.01
2023-08-16T04:07:42.920Z,20.19
2023-08-16T04:10:12.935Z,20.38
2023-08-16T04:12:43.169Z,20.61
2023-08-16T04:15:21.711Z,20.84
2023-08-16T04:17:53.572Z,21.08
2023-08-16T04:20:22.805Z,21.38
2023-08-16T04:22:56.551Z,21.74
2023-08-16T04:25:29.406Z,22.21
2023-08-16T04:28:12.558Z,22.73
2023-08-16T04:30:53.332Z,23.30
2023-08-16T04:33:21.626Z,23.84
2023-08-16T04:35:55.316Z,24.27
2023-08-16T04:38:24.835Z,24.65
2023-08-16T04:40:56.583Z,25.02
2023-08-16T04:43:24.552Z,25.43
2023-08-16T04:45:57.960Z,25.83
2023-08-16T04:48:29.256Z,26.17
2023-08-16T04:51:12.217Z,26.53
2023-08-16T04:53:40.913Z,26.91
2023-08-16T04:56:26.085Z,27.19
2023-08-16T04:58:54.972Z,27.52
2023-08-16T05:01:29.444Z,27.80
2023-08-16T05:04:05.187Z,28.07
2023-08-16T05:06:34.211Z,28.19
2023-08-16T05:09:13.267Z,28.27
2023-08-16T05:11:46.872Z,28.41
2023-08-16T05:14:15.467Z,28.54
2023-08-16T05:16:48.782Z,28.50
2023-08-16T05:19:16.827Z,28.49
2023-08-16T05:21:50.426Z,28.55
2023-08-16T05:24:27.000Z,28.62
2023-08-16T05:27:18.320Z,28.83
2023-08-16T05:29:51.425Z,28.97
2023-08-16T05:32:34.364Z,28.98
2023-08-16T05:35:16.437Z,29.11
2023-08-16T05:37:49.218Z,29.14
2023-08-16T05:40:27.936Z,29.11
2023-08-16T05:43:03.184Z,28.92
2023-08-16T05:45:38.324Z,28.68
2023-08-16T05:48:12.577Z,28.56
2023-08-16T05:51:01.290Z,28.53
2023-08-16T05:53:31.932Z,28.44
2023-08-16T05:56:05.545Z,28.32
2023-08-16T05:58:36.675Z,28.15
2023-08-16T06:01:19.247Z,28.03
2023-08-16T06:03:55.780Z,27.84
2023-08-16T06:06:26.079Z,27.69
2023-08-16T06:08:57.451Z,27.55
2023-08-16T06:11:30.322Z,27.37
2023-08-16T06:14:06.477Z,27.23
2023-08-16T06:16:42.279Z,27.13
2023-08-16T06:19:17.167Z,27.04
2023-08-16T06:21:50.462Z,26.95
2023-08-16T06:24:33.200Z,26.86
2023-08-16T06:27:05.779Z,26.81
2023-08-16T06:29:34.147Z,26.78
2023-08-16T06:32:14.467Z,26.75
2023-08-16T06:34:49.018Z,26.76
2023-08-16T06:37:17.096Z,26.77
2023-08-16T06:39:50.805Z,26.75
2023-08-16T06:42:21.126Z,26.73
2023-08-16T06:44:49.192Z,26.75
2023-08-16T06:47:31.102Z,26.78
2023-08-16T06:50:06.298Z,26.85
2023-08-16T06:52:43.744Z,26.87
2023-08-16T06:55:26.865Z,26.86
2023-08-16T06:58:01.990Z,26.88
2023-08-16T07:00:35.122Z,26.89
2023-08-16T07:03:15.186Z,26.93
2023-08-16T07:05:59.236Z,26.98
2023-08-16T07:08:34.016Z,26.99
2023-08-16T07:11:07.002Z,27.02
2023-08-16T07:13:50.948Z,27.06
2023-08-16T07:16:19.795Z,27.20
2023-08-16T07:18:53.411Z,27.28
2023-08-16T07:21:26.423Z,27.37
2023-08-16T07:23:56.977Z,27.44
2023-08-16T07:26:27.694Z,27.53
2023-08-16T07:28:55.564Z,27.60
2023-08-16T07:31:25.770Z,27.61
2023-08-16T07:34:00.829Z,27.59
2023-08-16T07:36:31.042Z,27.62
2023-08-16T07:39:06.042Z,27.62
2023-08-16T07:41:41.464Z,27.59
2023-08-16T07:44:17.481Z,27.64
2023-08-16T07:46:45.677Z,27.65
2023-08-16T07:49:18.542Z,27.65
2023-08-16T07:51:51.742Z,27.61
2023-08-16T07:54:26.064Z,27.65
2023-08-16T07:56:54.371Z,27.71
2023-08-16T07:59:40.870Z,27.81
2023-08-16T08:02:10.859Z,27.87
2023-08-16T08:04:41.489Z,27.85
2023-08-16T08:07:20.009Z,27.83
2023-08-16T08:09:48.180Z,27.85
2023-08-16T08:12:20.962Z,27.89
2023-08-16T08:14:51.085Z,28.00
2023-08-16T08:17:24.579Z,28.13
2023-08-16T08:19:53.274Z,28.27
2023-08-16T08:22:27.415Z,28.29
2023-08-16T08:25:01.549Z,28.29
2023-08-16T08:27:32.139Z,28.24
2023-08-16T08:30:04.488Z,28.23
2023-08-16T08:32:33.057Z,28.25
2023-08-16T08:35:16.692Z,28.33
2023-08-16T08:37:47.686Z,28.47
2023-08-16T08:40:24.346Z,28.56
2023-08-16T08:42:57.376Z,28.55
2023-08-16T08:45:27.867Z,28.55
2023-08-16T08:50:43.465Z,28.68
2023-08-16T08:53:14.241Z,28.76
2023-08-16T08:55:42.385Z,28.84
2023-08-16T08:58:15.473Z,28.82
2023-08-16T09:00:43.847Z,28.82
2023-08-16T09:03:16.213Z,28.85
2023-08-16T09:05:47.893Z,28.85
2023-08-16T09:08:20.561Z,28.87
2023-08-16T09:11:05.038Z,28.91
2023-08-16T09:13:38.624Z,28.97
2023-08-16T09:16:21.652Z,29.05
2023-08-16T09:18:52.378Z,29.18
2023-08-16T09:21:32.548Z,29.24
2023-08-16T09:24:21.910Z,29.28
2023-08-16T09:26:55.279Z,29.22
2023-08-16T09:29:23.388Z,29.18
2023-08-16T09:31:55.377Z,29.12
2023-08-16T09:37:04.392Z,28.97
2023-08-16T09:39:39.842Z,28.99
2023-08-16T09:42:12.514Z,29.00
2023-08-16T09:44:46.319Z,29.04
2023-08-16T09:47:18.213Z,29.13
2023-08-16T09:49:53.626Z,29.20
2023-08-16T09:52:30.232Z,29.24
2023-08-16T09:55:01.546Z,29.30
2023-08-16T09:57:37.929Z,29.37
2023-08-16T10:00:11.299Z,29.41
2023-08-16T10:08:01.950Z,29.77
2023-08-16T10:10:33.300Z,29.69
2023-08-16T10:13:05.339Z,29.64
2023-08-16T10:15:36.818Z,29.61
2023-08-16T10:18:08.400Z,29.60
2023-08-16T10:20:38.300Z,29.68
2023-08-16T10:23:11.191Z,29.71
2023-08-16T10:25:53.613Z,29.72
2023-08-16T10:28:26.980Z,29.79
2023-08-16T10:33:45.843Z,29.73
2023-08-16T10:36:19.569Z,29.69
2023-08-16T10:39:00.095Z,29.71
2023-08-16T10:42:00.474Z,29.73
2023-08-16T10:44:31.321Z,29.72
2023-08-16T10:47:02.552Z,29.71
2023-08-16T10:49:42.261Z,29.61
2023-08-16T10:52:10.378Z,29.55
2023-08-16T10:54:39.806Z,29.56
2023-08-16T10:57:13.070Z,29.58
2023-08-16T10:59:46.767Z,29.57
2023-08-16T11:02:18.317Z,29.57
2023-08-16T11:04:47.658Z,29.54
2023-08-16T11:07:21.478Z,29.50
2023-08-16T11:09:50.540Z,29.49
2023-08-16T11:12:21.257Z,29.53
2023-08-16T11:14:54.563Z,29.58
2023-08-16T11:17:23.349Z,29.63
2023-08-16T11:20:06.892Z,29.75
2023-08-16T11:22:35.267Z,29.86
2023-08-16T11:25:11.242Z,29.83
2023-08-16T11:27:48.007Z,29.78
2023-08-16T11:30:23.242Z,29.83
2023-08-16T11:32:53.405Z,29.85
2023-08-16T11:35:22.421Z,29.94
2023-08-16T11:37:50.432Z,29.98
2023-08-16T11:40:27.845Z,29.94
2023-08-16T11:43:05.113Z,29.88
2023-08-16T11:45:40.674Z,29.82
2023-08-16T11:48:18.877Z,29.81
2023-08-16T11:50:52.371Z,29.84
2023-08-16T11:53:26.378Z,29.82
2023-08-16T11:56:17.600Z,29.85
2023-08-16T11:58:51.403Z,29.92
2023-08-16T12:01:23.482Z,30.01
2023-08-16T12:03:58.045Z,30.03
2023-08-16T12:06:31.085Z,30.08
2023-08-16T12:08:59.804Z,30.28
2023-08-16T12:11:47.219Z,30.39
2023-08-16T12:14:20.136Z,30.38
2023-08-16T12:16:48.376Z,30.42
2023-08-16T12:19:29.199Z,30.48
2023-08-16T12:22:02.242Z,30.43
2023-08-16T12:24:38.292Z,30.30
2023-08-16T12:27:36.212Z,30.25
2023-08-16T12:30:14.373Z,30.20
2023-08-16T12:32:56.111Z,30.14
2023-08-16T12:35:26.694Z,30.13
2023-08-16T12:38:00.614Z,30.09
2023-08-16T12:40:35.950Z,30.05
2023-08-16T12:43:11.848Z,30.00
2023-08-16T12:45:52.406Z,30.02
2023-08-16T12:48:21.313Z,30.01
2023-08-16T12:51:03.805Z,30.04
2023-08-16T12:53:47.204Z,30.12
2023-08-16T12:56:20.392Z,30.19
2023-08-16T13:01:24.520Z,30.16
2023-08-16T13:06:52.585Z,30.22
2023-08-16T13:09:28.430Z,30.21
2023-08-16T13:12:08.896Z,30.23
2023-08-16T13:14:46.420Z,30.14
2023-08-16T13:17:25.214Z,30.06
2023-08-16T13:27:43.338Z,30.07
2023-08-16T13:33:29.692Z,30.23
2023-08-16T13:36:05.020Z,30.37
2023-08-16T13:38:48.595Z,30.43
2023-08-16T13:41:24.888Z,30.40
2023-08-16T13:44:44.684Z,30.39
2023-08-16T13:46:54.866Z,30.34
2023-08-16T13:49:55.501Z,30.28
2023-08-16T13:52:31.567Z,30.19
2023-08-16T13:55:01.717Z,30.10
2023-08-16T13:57:34.989Z,30.00
2023-08-16T14:00:06.023Z,29.94
2023-08-16T14:02:44.798Z,29.94
2023-08-16T14:05:19.711Z,30.01
2023-08-16T14:07:48.362Z,30.13
2023-08-16T14:10:16.232Z,30.18
2023-08-16T14:12:47.385Z,30.18
2023-08-16T14:15:23.435Z,30.09
2023-08-16T14:17:56.373Z,30.08
2023-08-16T14:20:34.653Z,30.04
2023-08-16T14:23:07.635Z,29.99
2023-08-16T14:25:50.970Z,30.02
2023-08-16T14:28:31.334Z,30.02
2023-08-16T14:31:05.042Z,29.98
2023-08-16T14:33:33.213Z,29.94
2023-08-16T14:36:05.671Z,29.91
2023-08-16T14:38:37.658Z,29.90
2023-08-16T14:41:11.034Z,29.86
2023-08-16T14:43:41.981Z,29.81
2023-08-16T14:46:12.966Z,29.83
2023-08-16T14:48:45.697Z,29.88
2023-08-16T14:51:29.131Z,29.84
2023-08-16T14:53:58.315Z,29.73
2023-08-16T14:56:33.571Z,29.70
2023-08-16T14:59:07.518Z,29.69
2023-08-16T15:01:36.825Z,29.67
2023-08-16T15:04:07.944Z,29.67
2023-08-16T15:06:36.205Z,29.68
2023-08-16T15:09:07.354Z,29.60
2023-08-16T15:11:38.085Z,29.47
2023-08-16T15:14:20.088Z,29.36
2023-08-16T15:16:54.119Z,29.31
2023-08-16T15:19:26.991Z,29.25
2023-08-16T15:21:57.306Z,29.15
2023-08-16T15:24:34.405Z,29.08
2023-08-16T15:27:07.074Z,29.01
2023-08-16T15:29:42.220Z,28.91
2023-08-16T15:32:17.864Z,28.79
2023-08-16T15:34:51.058Z,28.69
2023-08-16T15:37:21.174Z,28.60
2023-08-16T15:40:08.508Z,28.52
2023-08-16T15:42:36.673Z,28.43
2023-08-16T15:45:09.680Z,28.33
2023-08-16T15:47:52.020Z,28.26
2023-08-16T15:50:34.406Z,28.18
2023-08-16T15:53:07.477Z,28.09
2023-08-16T15:55:48.869Z,28.00
2023-08-16T15:58:18.970Z,27.90
2023-08-16T16:00:55.059Z,27.83
2023-08-16T16:03:23.425Z,27.74
2023-08-16T16:05:56.499Z,27.66
2023-08-16T16:08:32.571Z,27.58
2023-08-16T16:11:06.273Z,27.48
2023-08-16T16:13:42.446Z,27.37
2023-08-16T16:16:10.956Z,27.25
2023-08-16T16:18:44.107Z,27.13
2023-08-16T16:21:16.999Z,27.00
2023-08-16T16:23:50.203Z,26.91
2023-08-16T16:26:19.282Z,26.78
2023-08-16T16:28:57.183Z,26.67
2023-08-16T16:31:31.190Z,26.56
2023-08-16T16:34:07.528Z,26.45
2023-08-16T16:36:49.465Z,26.34
2023-08-16T16:39:22.660Z,26.21
2023-08-16T16:41:50.543Z,26.08
2023-08-16T16:44:21.593Z,25.96
2023-08-16T16:47:09.008Z,25.83
2023-08-16T16:49:42.511Z,25.70
2023-08-16T16:52:13.257Z,25.60
2023-08-16T16:54:56.568Z,25.52
2023-08-16T16:57:32.734Z,25.42
2023-08-16T17:00:16.389Z,25.34
2023-08-16T17:02:44.539Z,25.25
2023-08-16T17:05:17.934Z,25.17
2023-08-16T17:07:49.400Z,25.09
2023-08-16T17:10:17.885Z,25.01
2023-08-16T17:12:48.912Z,24.94
2023-08-16T17:15:22.431Z,24.85
2023-08-16T17:18:05.863Z,24.75
2023-08-16T17:20:39.140Z,24.66
2023-08-16T17:23:18.273Z,24.60
2023-08-16T17:25:52.494Z,24.54
2023-08-16T17:28:23.020Z,24.48
2023-08-16T17:30:58.909Z,24.42
2023-08-16T17:33:32.374Z,24.37
2023-08-16T17:36:03.023Z,24.33
2023-08-16T17:38:34.679Z,24.30
2023-08-16T17:41:03.656Z,24.28
2023-08-16T17:43:37.365Z,24.25
2023-08-16T17:46:24.215Z,24.23
2023-08-16T17:48:56.725Z,24.20
2023-08-16T17:51:29.639Z,24.16
2023-08-16T17:54:02.423Z,24.12
2023-08-16T17:56:35.107Z,24.08
2023-08-16T17:59:04.612Z,24.06
2023-08-16T18:01:33.604Z,24.03
2023-08-16T18:04:20.219Z,23.99
2023-08-16T18:06:55.248Z,23.96
2023-08-16T18:09:25.374Z,23.92
2023-08-16T18:12:10.151Z,23.86
2023-08-16T18:14:38.107Z,23.77
2023-08-16T18:17:10.901Z,23.67
2023-08-16T18:19:53.609Z,23.59
2023-08-16T18:22:29.564Z,23.54
2023-08-16T18:25:08.200Z,23.47
2023-08-16T18:27:44.469Z,23.41
2023-08-16T18:30:13.646Z,23.33
2023-08-16T18:32:44.947Z,23.26
2023-08-16T18:35:13.070Z,23.20
2023-08-16T18:37:44.121Z,23.12
2023-08-16T18:40:19.677Z,23.07
2023-08-16T18:42:52.853Z,23.00
2023-08-16T18:45:24.696Z,22.95
2023-08-16T18:47:54.821Z,22.91
2023-08-16T18:50:25.057Z,22.87
2023-08-16T18:52:53.790Z,22.85
2023-08-16T18:55:21.936Z,22.83
2023-08-16T18:57:51.444Z,22.80
2023-08-16T19:00:22.525Z,22.76
2023-08-16T19:02:50.949Z,22.71
2023-08-16T19:05:21.514Z,22.69
2023-08-16T19:08:23.459Z,22.66
2023-08-16T19:10:56.751Z,22.61
2023-08-16T19:13:29.539Z,22.54
2023-08-16T19:16:02.638Z,22.47
2023-08-16T19:18:41.649Z,22.43
2023-08-16T19:21:09.729Z,22.38
2023-08-16T19:23:43.432Z,22.34
2023-08-16T19:26:17.449Z,22.31
2023-08-16T19:28:57.056Z,22.28
2023-08-16T19:31:30.701Z,22.26
2023-08-16T19:34:02.291Z,22.22
2023-08-16T19:36:32.673Z,22.20
2023-08-16T19:39:00.649Z,22.18
2023-08-16T19:41:41.113Z,22.15
2023-08-16T19:44:10.009Z,22.15
2023-08-16T19:46:38.849Z,22.13
2023-08-16T19:49:06.762Z,22.12
2023-08-16T19:51:43.884Z,22.09
2023-08-16T19:54:19.234Z,22.03
2023-08-16T19:56:53.020Z,21.95
2023-08-16T19:59:27.818Z,21.83
2023-08-16T20:01:58.778Z,21.72
2023-08-16T20:04:26.732Z,21.64
2023-08-16T20:07:00.036Z,21.57
2023-08-16T20:09:33.933Z,21.48
2023-08-16T20:12:01.805Z,21.42
2023-08-16T20:14:54.965Z,21.37
2023-08-16T20:17:25.347Z,21.30
2023-08-16T20:19:55.419Z,21.26
2023-08-16T20:22:23.386Z,21.22
2023-08-16T20:24:54.491Z,21.16
2023-08-16T20:27:28.489Z,21.11
2023-08-16T20:29:56.827Z,21.08
2023-08-16T20:32:25.204Z,21.04
2023-08-16T20:35:01.003Z,21.00
2023-08-16T20:37:34.777Z,20.96
2023-08-16T20:40:09.440Z,20.91
2023-08-16T20:42:39.510Z,20.85
2023-08-16T20:45:11.658Z,20.81
2023-08-16T20:47:41.211Z,20.77
2023-08-16T20:50:10.720Z,20.71
2023-08-16T20:52:44.225Z,20.68
2023-08-16T20:55:20.295Z,20.64
2023-08-16T20:57:56.822Z,20.58
2023-08-16T21:00:24.811Z,20.54
2023-08-16T21:02:58.019Z,20.51
2023-08-16T21:07:59.671Z,20.50
2023-08-16T21:10:38.491Z,20.46
2023-08-16T21:13:06.865Z,20.44
2023-08-16T21:15:34.977Z,20.42
2023-08-16T21:18:05.110Z,20.38
2023-08-16T21:20:35.296Z,20.35
2023-08-16T21:23:10.423Z,20.34
2023-08-16T21:25:43.612Z,20.30
2023-08-16T21:28:16.398Z,20.27
2023-08-16T21:30:45.288Z,20.24
2023-08-16T21:33:29.238Z,20.22
2023-08-16T21:35:59.028Z,20.19
2023-08-16T21:38:27.937Z,20.17
2023-08-16T21:41:01.341Z,20.15
2023-08-16T21:43:35.040Z,20.13
2023-08-16T21:46:05.277Z,20.10
2023-08-16T21:48:38.367Z,20.07
2023-08-16T21:51:08.812Z,20.05
2023-08-16T21:53:39.010Z,20.04
2023-08-16T21:56:09.023Z,20.02
2023-08-16T21:58:37.411Z,19.99
2023-08-16T22:01:14.397Z,19.98
2023-08-16T22:03:46.218Z,20.01
2023-08-16T22:06:21.817Z,20.03
2023-08-16T22:08:56.116Z,20.05
2023-08-16T22:11:28.910Z,20.06
2023-08-16T22:13:56.870Z,20.08
2023-08-16T22:16:30.816Z,20.10
2023-08-16T22:19:00.205Z,20.14
2023-08-16T22:21:31.443Z,20.19
2023-08-16T22:23:59.517Z,20.26
2023-08-16T22:26:35.109Z,20.31
2023-08-16T22:29:08.152Z,20.35
2023-08-16T22:31:40.829Z,20.36
2023-08-16T22:34:09.100Z,20.38
2023-08-16T22:36:49.457Z,20.40
2023-08-16T22:39:17.441Z,20.45
2023-08-16T22:41:57.589Z,20.49
2023-08-16T22:44:28.430Z,20.54
2023-08-16T22:46:56.553Z,20.57
2023-08-16T22:49:31.751Z,20.59
2023-08-16T22:52:25.820Z,20.57
2023-08-16T22:55:03.648Z,20.53
2023-08-16T22:57:32.719Z,20.48
2023-08-16T23:00:02.435Z,20.46
2023-08-16T23:02:30.424Z,20.43
2023-08-16T23:05:05.241Z,20.41
2023-08-16T23:07:41.196Z,20.36
2023-08-16T23:10:14.901Z,20.33
2023-08-16T23:12:48.519Z,20.31
2023-08-16T23:15:16.696Z,20.29
2023-08-16T23:18:10.210Z,20.26
2023-08-16T23:20:50.607Z,20.22
2023-08-16T23:23:23.601Z,20.20
2023-08-16T23:25:53.738Z,20.17
2023-08-16T23:28:29.062Z,20.15
2023-08-16T23:30:57.334Z,20.13
2023-08-16T23:33:27.971Z,20.12
2023-08-16T23:36:03.322Z,20.11
2023-08-16T23:38:33.114Z,20.12
2023-08-16T23:41:02.024Z,20.12
2023-08-16T23:43:35.206Z,20.11
2023-08-16T23:46:08.146Z,20.10
2023-08-16T23:48:50.108Z,20.09
2023-08-16T23:51:23.423Z,20.06
2023-08-16T23:53:52.305Z,20.05
2023-08-16T23:56:25.995Z,20.02
2023-08-16T23:58:53.961Z,20.00
